2TN0 weather

Hospital Wing Heliport
Memphis, Tennessee, United States

Public forecast

Using degrees Fahrenheit for public forecast. Weather courtesy of forecast.io.

METAR (pilot weather report)

Closest report is Memphis International Airport, 6.5 nm (12.0 km) SSE. Retrieved 2019/09/21 11:54 UTC (22 minutes ago):

KMEM 211154Z 17006KT 10SM FEW250 22/15 A3019 RMK AO2 SLP221 T02170150 10244 20211 51015 $

TAF (pilot weather forecast)

Closest forecast is Memphis International Airport, 6.5 nm (12.0 km) SSE. Retrieved 2019/09/21 12:42 UTC (0 seconds ago):

TAF KMEM 211139Z 2112/2218 17006KT P6SM BKN250 FM211500 18009KT P6SM SCT050 BKN250 FM220100 17005KT P6SM FEW050 BKN250 FM221200 19009KT P6SM FEW050 SCT080